Time;durP1;ratioP1;P1;durP2;ratioP2;P2;SDS_P1;SDS_P2;PMS_P1;PMS_P2;Temp;Humidity;BMP_temperature;BMP_pressure;BME280_temperature;BME280_humidity;BME280_pressure;Samples;Min_cycle;Max_cycle;Signal;HPM_P1;HPM_P2
2022/09/30 00:01:01;;;;;;;6.40;4.40;;;6.10;99.90;;;;;;6246486;22;20162;-43
2022/09/30 00:03:27;;;;;;;5.83;3.90;;;6.10;99.90;;;;;;6246210;22;20154;-43
2022/09/30 00:06:01;;;;;;;5.90;4.40;;;6.00;99.90;;;;;;6246620;22;20233;-43
2022/09/30 00:08:27;;;;;;;5.83;4.07;;;6.00;99.90;;;;;;6244774;23;20150;-42
2022/09/30 00:11:04;;;;;;;6.07;4.43;;;6.00;99.90;;;;;;6246208;22;20171;-43
2022/09/30 00:13:31;;;;;;;5.10;3.80;;;6.00;99.90;;;;;;6220493;23;20150;-42
2022/09/30 00:15:57;;;;;;;6.27;4.23;;;5.90;99.90;;;;;;6246360;22;20489;-40
2022/09/30 00:18:22;;;;;;;7.07;4.43;;;5.90;99.90;;;;;;6244548;23;20156;-39
2022/09/30 00:20:48;;;;;;;7.60;4.80;;;5.90;99.90;;;;;;6246348;22;20236;-40
2022/09/30 00:23:14;;;;;;;5.53;4.00;;;5.90;99.90;;;;;;6246352;22;20151;-39
2022/09/30 00:25:39;;;;;;;4.40;3.87;;;5.80;99.90;;;;;;6246075;22;20151;-41
2022/09/30 00:28:06;;;;;;;8.43;4.57;;;5.80;99.90;;;;;;6246345;22;20210;-38
2022/09/30 00:30:33;;;;;;;5.43;3.90;;;5.80;99.90;;;;;;6245192;23;20220;-39
2022/09/30 00:32:59;;;;;;;5.47;3.80;;;5.80;99.90;;;;;;6245888;22;20229;-39
2022/09/30 00:35:25;;;;;;;6.10;3.63;;;5.70;99.90;;;;;;6246234;23;20156;-37
2022/09/30 00:37:50;;;;;;;5.83;4.50;;;5.70;99.90;;;;;;6245801;22;20541;-40
2022/09/30 00:40:18;;;;;;;8.23;4.30;;;5.60;99.90;;;;;;6243932;23;20185;-38
2022/09/30 00:42:45;;;;;;;5.03;3.80;;;5.60;99.90;;;;;;6245988;22;20156;-42
2022/09/30 00:45:12;;;;;;;6.23;4.00;;;5.60;99.90;;;;;;6244286;23;20166;-41
2022/09/30 00:47:54;;;;;;;5.30;4.13;;;5.60;99.90;;;;;;6244663;23;20204;-38
2022/09/30 00:50:37;;;;;;;7.40;3.77;;;5.60;99.90;;;;;;6244249;23;20200;-38
2022/09/30 00:53:06;;;;;;;4.70;3.80;;;5.50;99.90;;;;;;6245869;22;20139;-38
2022/09/30 00:55:45;;;;;;;5.20;3.63;;;5.50;99.90;;;;;;6246353;22;20230;-40
2022/09/30 00:58:14;;;;;;;6.37;4.10;;;5.50;99.90;;;;;;6244333;23;20206;-39
2022/09/30 01:00:41;;;;;;;4.83;3.90;;;5.50;99.90;;;;;;6244183;23;20166;-40
2022/09/30 01:03:06;;;;;;;5.73;4.13;;;5.40;99.90;;;;;;6246525;22;20162;-37
2022/09/30 01:05:33;;;;;;;5.30;3.63;;;5.40;99.90;;;;;;6244134;23;20217;-37
2022/09/30 01:08:12;;;;;;;5.33;3.93;;;5.40;99.90;;;;;;6245713;22;20181;-39
2022/09/30 01:10:39;;;;;;;4.87;3.77;;;5.40;99.90;;;;;;6245722;22;20233;-40
2022/09/30 01:13:05;;;;;;;5.63;4.13;;;5.40;99.90;;;;;;6247232;22;20153;-38
2022/09/30 01:15:45;;;;;;;7.50;4.37;;;5.40;99.90;;;;;;6245994;22;20195;-40
2022/09/30 01:18:40;;;;;;;6.00;3.93;;;5.30;99.90;;;;;;6245818;22;20248;-38
2022/09/30 01:21:24;;;;;;;6.10;3.83;;;5.30;99.90;;;;;;6244143;23;20189;-38
2022/09/30 01:24:10;;;;;;;5.63;3.60;;;5.30;99.90;;;;;;6246147;22;20520;-40
2022/09/30 01:27:09;;;;;;;5.83;3.53;;;5.20;99.90;;;;;;6230075;22;20485;-40
2022/09/30 01:29:56;;;;;;;5.43;3.97;;;5.20;99.90;;;;;;6245892;23;20173;-40
2022/09/30 01:32:32;;;;;;;4.80;3.63;;;5.20;99.90;;;;;;6245566;22;20208;-40
2022/09/30 01:35:38;;;;;;;6.53;3.50;;;5.10;99.90;;;;;;6245575;22;20150;-39
2022/09/30 01:38:07;;;;;;;4.57;3.90;;;5.10;99.90;;;;;;6245601;22;20203;-41
2022/09/30 01:40:38;;;;;;;4.77;3.70;;;5.10;99.90;;;;;;6243864;23;20208;-40
2022/09/30 01:43:37;;;;;;;4.23;3.10;;;5.10;99.90;;;;;;6245691;22;20146;-40
2022/09/30 01:46:32;;;;;;;6.63;3.20;;;5.00;99.90;;;;;;6245271;23;20360;-42
2022/09/30 01:49:11;;;;;;;5.67;3.20;;;5.00;99.90;;;;;;6230868;23;20160;-42
2022/09/30 01:51:39;;;;;;;6.93;3.60;;;5.00;99.90;;;;;;6246756;22;20308;-39
2022/09/30 01:54:30;;;;;;;5.43;3.53;;;5.00;99.90;;;;;;6247296;22;20156;-39
2022/09/30 01:57:16;;;;;;;4.40;3.50;;;4.90;99.90;;;;;;6247677;22;20252;-40
2022/09/30 02:00:06;;;;;;;7.77;3.03;;;4.90;99.90;;;;;;6245819;23;20167;-40
2022/09/30 02:03:04;;;;;;;4.80;3.47;;;4.90;99.90;;;;;;6245571;23;20165;-41
2022/09/30 02:05:41;;;;;;;3.27;2.83;;;4.80;99.90;;;;;;6247492;22;20162;-40
2022/09/30 02:08:15;;;;;;;3.60;3.07;;;4.80;99.90;;;;;;6247567;22;20178;-41
2022/09/30 02:10:50;;;;;;;7.23;3.53;;;4.80;99.90;;;;;;6247400;22;20220;-42
2022/09/30 02:13:29;;;;;;;5.47;3.30;;;4.80;99.90;;;;;;6245701;23;20525;-40
2022/09/30 02:15:59;;;;;;;4.40;3.13;;;4.80;99.90;;;;;;6245543;23;20509;-42
2022/09/30 02:18:31;;;;;;;4.87;3.00;;;4.70;99.90;;;;;;6249564;23;20149;-43
2022/09/30 02:21:14;;;;;;;5.17;3.37;;;4.70;99.90;;;;;;6252593;22;20207;-44
2022/09/30 02:23:44;;;;;;;5.00;3.00;;;4.70;99.90;;;;;;6250856;23;20160;-45
2022/09/30 02:26:22;;;;;;;6.53;3.83;;;4.60;99.90;;;;;;6252086;22;20178;-45
2022/09/30 02:28:55;;;;;;;3.47;3.07;;;4.60;99.90;;;;;;6252581;22;20201;-44
2022/09/30 02:31:39;;;;;;;8.30;3.53;;;4.60;99.90;;;;;;6252969;22;20625;-42
2022/09/30 02:34:15;;;;;;;5.83;3.20;;;4.60;99.90;;;;;;6250890;23;20194;-45
2022/09/30 02:37:09;;;;;;;3.80;3.03;;;4.60;99.90;;;;;;6253529;22;20236;-43
2022/09/30 02:39:56;;;;;;;7.97;3.10;;;4.50;99.90;;;;;;6252644;22;20207;-44
2022/09/30 02:42:28;;;;;;;7.57;2.90;;;4.50;99.90;;;;;;6251685;23;20168;-44
2022/09/30 02:44:58;;;;;;;4.17;2.63;;;4.50;99.90;;;;;;6250605;23;20186;-45
2022/09/30 02:47:57;;;;;;;5.33;3.23;;;4.50;99.90;;;;;;6251787;22;20500;-42
2022/09/30 02:50:30;;;;;;;3.70;3.10;;;4.50;99.90;;;;;;6251612;22;20506;-45
2022/09/30 02:53:29;;;;;;;4.80;2.70;;;4.40;99.90;;;;;;6252681;22;20475;-42
2022/09/30 02:56:07;;;;;;;4.23;2.93;;;4.40;99.90;;;;;;6251851;22;20155;-43
2022/09/30 02:58:35;;;;;;;3.57;3.17;;;4.40;99.90;;;;;;6252749;22;20607;-43
2022/09/30 03:01:01;;;;;;;4.40;3.00;;;4.40;99.90;;;;;;6250546;23;20161;-43
2022/09/30 03:03:32;;;;;;;3.93;3.50;;;4.40;99.90;;;;;;6251342;22;20597;-42
2022/09/30 03:05:58;;;;;;;5.37;3.50;;;4.40;99.90;;;;;;6249035;22;20139;-38
2022/09/30 03:08:24;;;;;;;5.57;3.10;;;4.40;99.90;;;;;;6247098;22;20249;-40
2022/09/30 03:10:51;;;;;;;8.20;3.17;;;4.30;99.90;;;;;;6246984;22;20291;-41
2022/09/30 03:13:43;;;;;;;8.87;3.00;;;4.30;99.90;;;;;;6247090;22;20590;-38
2022/09/30 03:16:20;;;;;;;5.17;3.40;;;4.30;99.90;;;;;;6245041;23;20183;-39
2022/09/30 03:19:07;;;;;;;6.80;3.10;;;4.30;99.90;;;;;;6246741;22;20137;-38
2022/09/30 03:22:05;;;;;;;5.67;3.10;;;4.20;99.90;;;;;;6247107;22;20144;-38
2022/09/30 03:24:36;;;;;;;8.40;3.33;;;4.20;99.90;;;;;;6247035;22;20153;-37
2022/09/30 03:27:26;;;;;;;5.57;3.23;;;4.20;99.90;;;;;;6246542;22;20172;-38
2022/09/30 03:30:15;;;;;;;3.70;3.00;;;4.10;99.90;;;;;;6246456;22;20199;-39
2022/09/30 03:32:50;;;;;;;4.70;2.93;;;4.10;99.90;;;;;;6244934;23;20497;-37
2022/09/30 03:35:34;;;;;;;10.50;3.23;;;4.10;99.90;;;;;;6244979;23;20155;-38
2022/09/30 03:38:36;;;;;;;4.93;3.23;;;4.20;99.90;;;;;;6246579;22;20172;-37
2022/09/30 03:41:15;;;;;;;4.83;3.13;;;4.10;99.90;;;;;;6246711;23;20580;-37
2022/09/30 03:43:50;;;;;;;7.60;3.40;;;4.10;99.90;;;;;;6246811;22;20511;-38
2022/09/30 03:46:31;;;;;;;5.63;3.63;;;4.10;99.90;;;;;;6246527;22;20200;-39
2022/09/30 03:49:01;;;;;;;5.10;2.90;;;4.00;99.90;;;;;;6244805;23;20227;-38
2022/09/30 03:51:28;;;;;;;3.93;2.87;;;4.00;99.90;;;;;;6246705;22;20159;-39
2022/09/30 03:53:55;;;;;;;9.37;3.63;;;4.00;99.90;;;;;;6246723;22;20171;-40
2022/09/30 03:56:27;;;;;;;5.27;3.00;;;4.00;99.90;;;;;;6247016;22;20175;-42
2022/09/30 03:58:52;;;;;;;6.63;3.33;;;4.00;99.90;;;;;;6246521;22;20152;-39
2022/09/30 04:01:20;;;;;;;6.77;2.80;;;4.00;99.90;;;;;;6244695;23;20214;-38
2022/09/30 04:03:47;;;;;;;6.83;3.50;;;4.00;99.90;;;;;;6246206;22;20223;-42
2022/09/30 04:06:13;;;;;;;3.93;2.83;;;3.90;99.90;;;;;;6244535;23;20260;-39
2022/09/30 04:08:39;;;;;;;6.00;3.30;;;4.00;99.90;;;;;;6246612;22;20191;-40
2022/09/30 04:11:04;;;;;;;6.33;3.13;;;4.00;99.90;;;;;;6246069;22;20217;-42
2022/09/30 04:13:30;;;;;;;6.63;3.27;;;4.00;99.90;;;;;;6246565;22;20152;-39
2022/09/30 04:15:56;;;;;;;5.33;3.40;;;4.00;99.90;;;;;;6246105;22;20517;-41
2022/09/30 04:18:22;;;;;;;5.27;3.17;;;3.90;99.90;;;;;;6246109;22;20179;-41
2022/09/30 04:20:47;;;;;;;5.93;3.43;;;4.00;99.90;;;;;;6246194;22;20628;-41
2022/09/30 04:23:13;;;;;;;6.13;3.07;;;4.00;99.90;;;;;;6246275;22;20236;-40
2022/09/30 04:25:38;;;;;;;6.60;3.57;;;4.00;99.90;;;;;;6246102;22;20160;-38
2022/09/30 04:28:04;;;;;;;9.70;3.23;;;4.00;99.90;;;;;;6246217;22;20665;-40
2022/09/30 04:30:29;;;;;;;8.07;3.57;;;4.00;99.90;;;;;;6245930;22;20172;-38
2022/09/30 04:32:55;;;;;;;6.90;3.53;;;4.00;99.90;;;;;;6246076;22;20164;-37
2022/09/30 04:35:20;;;;;;;5.73;3.27;;;4.00;99.90;;;;;;6245968;22;20487;-37
2022/09/30 04:37:47;;;;;;;5.23;3.53;;;4.00;99.90;;;;;;6245967;22;20250;-39
2022/09/30 04:40:14;;;;;;;4.77;3.53;;;3.90;99.90;;;;;;6245847;22;20199;-39
2022/09/30 04:42:41;;;;;;;5.93;2.70;;;3.90;99.90;;;;;;6244295;23;20160;-37
2022/09/30 04:45:08;;;;;;;12.53;2.93;;;3.90;99.90;;;;;;6245815;22;20162;-39
2022/09/30 04:47:34;;;;;;;4.83;3.00;;;3.90;99.90;;;;;;6244257;23;20649;-40
2022/09/30 04:49:59;;;;;;;5.80;2.97;;;3.90;99.90;;;;;;6246062;22;20181;-40
2022/09/30 04:52:25;;;;;;;11.00;3.63;;;3.80;99.90;;;;;;6246156;22;20156;-38
2022/09/30 04:54:51;;;;;;;4.00;3.20;;;3.80;99.90;;;;;;6246154;22;20494;-40
2022/09/30 04:57:16;;;;;;;3.93;2.77;;;3.80;99.90;;;;;;6246068;22;20645;-40
2022/09/30 04:59:42;;;;;;;4.43;3.30;;;3.80;99.90;;;;;;6244184;23;20221;-38
2022/09/30 05:02:11;;;;;;;5.10;2.97;;;3.80;99.90;;;;;;6244271;23;20159;-39
2022/09/30 05:04:37;;;;;;;9.73;3.33;;;3.70;99.90;;;;;;6245973;22;20156;-39
2022/09/30 05:07:07;;;;;;;6.10;3.47;;;3.70;99.90;;;;;;6245991;22;20253;-38
2022/09/30 05:09:33;;;;;;;6.93;3.07;;;3.70;99.90;;;;;;6246450;22;20504;-37
2022/09/30 05:12:02;;;;;;;6.10;3.00;;;5.10;99.90;;;;;;6246001;22;20227;-40
2022/09/30 05:14:28;;;;;;;7.10;3.23;;;3.70;99.90;;;;;;6246051;22;20495;-38
2022/09/30 05:16:54;;;;;;;5.80;2.90;;;3.70;99.90;;;;;;6246024;22;20478;-40
2022/09/30 05:19:19;;;;;;;5.37;3.27;;;3.70;99.90;;;;;;6245625;22;20166;-37
2022/09/30 05:21:45;;;;;;;9.17;3.40;;;3.70;99.90;;;;;;6246285;22;20148;-38
2022/09/30 05:24:11;;;;;;;5.77;3.27;;;3.70;99.90;;;;;;6245796;22;20178;-39
2022/09/30 05:26:36;;;;;;;5.30;3.33;;;3.70;99.90;;;;;;6246544;22;20194;-39
2022/09/30 05:29:02;;;;;;;4.30;2.90;;;3.70;99.90;;;;;;6247781;22;20163;-41
2022/09/30 05:31:27;;;;;;;3.50;2.67;;;3.70;99.90;;;;;;6245937;23;20152;-39
2022/09/30 05:33:54;;;;;;;10.17;3.53;;;3.70;99.90;;;;;;6247885;22;20136;-37
2022/09/30 05:36:19;;;;;;;6.13;3.33;;;3.70;99.90;;;;;;6247582;22;20179;-41
2022/09/30 05:38:48;;;;;;;6.00;3.03;;;3.70;99.90;;;;;;6247766;22;20264;-38
2022/09/30 05:41:14;;;;;;;5.00;3.37;;;3.70;99.90;;;;;;6247905;22;20198;-40
2022/09/30 05:43:44;;;;;;;7.77;3.57;;;3.70;99.90;;;;;;6247868;22;20152;-40
2022/09/30 05:46:09;;;;;;;6.30;3.43;;;3.70;99.90;;;;;;6247417;22;20171;-39
2022/09/30 05:48:35;;;;;;;7.50;3.70;;;3.70;99.90;;;;;;6247446;22;20554;-41
2022/09/30 05:51:01;;;;;;;5.33;3.40;;;3.70;99.90;;;;;;6248054;22;20226;-41
2022/09/30 05:53:28;;;;;;;7.23;3.73;;;3.70;99.90;;;;;;6247360;22;20269;-40
2022/09/30 05:55:54;;;;;;;8.53;3.70;;;3.70;99.90;;;;;;6247419;22;20550;-38
2022/09/30 05:58:20;;;;;;;5.97;3.53;;;3.80;99.90;;;;;;6247405;22;20483;-39
2022/09/30 06:00:47;;;;;;;10.30;3.47;;;3.80;99.90;;;;;;6247939;22;20152;-42
2022/09/30 06:03:13;;;;;;;9.83;3.40;;;3.80;99.90;;;;;;6247350;22;20151;-40
2022/09/30 06:05:39;;;;;;;9.63;3.60;;;3.80;99.90;;;;;;6245892;23;20623;-40
2022/09/30 06:08:08;;;;;;;4.77;3.20;;;3.90;99.90;;;;;;6245900;23;20215;-41
2022/09/30 06:10:34;;;;;;;11.97;3.77;;;3.80;99.90;;;;;;6247281;22;20176;-42
2022/09/30 06:13:02;;;;;;;6.43;3.90;;;3.80;99.90;;;;;;6245753;23;20156;-41
2022/09/30 06:15:28;;;;;;;7.57;3.87;;;3.90;99.90;;;;;;6248121;22;20242;-41
2022/09/30 06:17:55;;;;;;;4.10;3.63;;;3.90;99.90;;;;;;6245623;23;20184;-39
2022/09/30 06:20:21;;;;;;;11.53;4.20;;;3.90;99.90;;;;;;6245776;23;20524;-39
2022/09/30 06:22:46;;;;;;;7.53;4.00;;;4.00;99.90;;;;;;6247252;22;20166;-37
2022/09/30 06:25:13;;;;;;;4.87;4.13;;;4.10;99.90;;;;;;6247255;22;20239;-39
2022/09/30 06:27:42;;;;;;;7.70;4.63;;;4.10;99.90;;;;;;6245486;23;20465;-39
2022/09/30 06:30:09;;;;;;;9.10;4.60;;;4.20;99.90;;;;;;6247653;22;20708;-40
2022/09/30 06:32:34;;;;;;;4.67;3.93;;;4.20;99.90;;;;;;6246981;22;20224;-38
2022/09/30 06:35:02;;;;;;;7.27;4.30;;;4.20;99.90;;;;;;6247297;22;20588;-37
2022/09/30 06:37:27;;;;;;;8.87;4.63;;;4.30;99.90;;;;;;6247546;22;20179;-41
2022/09/30 06:39:53;;;;;;;9.90;5.00;;;4.40;99.90;;;;;;6247148;22;20496;-40
2022/09/30 06:42:19;;;;;;;8.53;4.90;;;4.50;99.90;;;;;;6247295;22;20163;-38
2022/09/30 06:44:44;;;;;;;8.30;4.60;;;4.60;99.90;;;;;;6245382;23;20515;-40
2022/09/30 06:47:13;;;;;;;10.47;5.20;;;4.70;99.90;;;;;;6247015;22;20171;-37
2022/09/30 06:49:39;;;;;;;8.20;5.93;;;4.80;99.90;;;;;;6247097;22;20279;-38
2022/09/30 06:52:05;;;;;;;11.77;6.90;;;5.00;99.90;;;;;;6247518;22;20533;-38
2022/09/30 06:54:30;;;;;;;11.67;6.83;;;5.10;99.90;;;;;;6247004;22;20186;-39
2022/09/30 06:56:56;;;;;;;11.03;6.33;;;5.20;99.90;;;;;;6246895;22;20175;-38
2022/09/30 06:59:25;;;;;;;10.33;6.67;;;5.30;99.90;;;;;;6246696;22;20186;-40
2022/09/30 07:01:51;;;;;;;15.30;7.33;;;5.50;99.90;;;;;;6246725;22;20151;-37
2022/09/30 07:04:17;;;;;;;11.10;7.40;;;5.60;99.90;;;;;;6246692;22;20235;-40
2022/09/30 07:06:42;;;;;;;11.20;7.33;;;5.70;99.90;;;;;;6246890;22;20211;-40
2022/09/30 07:09:09;;;;;;;12.17;7.97;;;5.80;99.90;;;;;;6244989;23;20155;-41
2022/09/30 07:11:36;;;;;;;16.00;8.07;;;5.90;99.90;;;;;;6246936;22;20152;-38
2022/09/30 07:14:03;;;;;;;15.47;8.00;;;6.00;99.90;;;;;;6245074;23;20164;-39
2022/09/30 07:16:30;;;;;;;14.73;7.77;;;6.10;99.90;;;;;;6244858;23;20226;-38
2022/09/30 07:18:58;;;;;;;14.10;7.43;;;6.30;99.90;;;;;;6245025;23;20155;-38
2022/09/30 07:21:23;;;;;;;11.03;8.13;;;6.40;99.90;;;;;;6247187;22;20153;-37
2022/09/30 07:23:51;;;;;;;10.67;8.20;;;6.50;99.90;;;;;;6246886;22;20243;-40
2022/09/30 07:26:22;;;;;;;15.50;9.53;;;6.60;99.90;;;;;;6244959;23;20180;-40
2022/09/30 07:28:49;;;;;;;21.40;10.77;;;6.70;99.90;;;;;;6246848;22;20152;-40
2022/09/30 07:31:21;;;;;;;14.43;10.83;;;6.80;99.90;;;;;;6246116;22;20188;-39
2022/09/30 07:33:50;;;;;;;20.23;13.03;;;6.90;99.90;;;;;;6246692;22;20609;-39
2022/09/30 07:36:17;;;;;;;21.50;13.57;;;7.00;99.90;;;;;;6246398;22;20168;-41
2022/09/30 07:38:43;;;;;;;28.03;14.73;;;7.10;99.90;;;;;;6246419;22;20597;-39
2022/09/30 07:41:15;;;;;;;24.00;14.67;;;7.30;99.90;;;;;;6246425;22;20516;-40
2022/09/30 07:43:43;;;;;;;21.00;13.13;;;7.40;99.90;;;;;;6246672;22;20148;-41
2022/09/30 07:46:10;;;;;;;29.43;14.90;;;7.60;99.90;;;;;;6246822;22;20526;-42
2022/09/30 07:51:03;;;;;;;25.83;14.40;;;7.80;99.90;;;;;;6246100;22;20197;-42
2022/09/30 07:53:29;;;;;;;29.60;14.67;;;8.00;99.90;;;;;;6246348;22;20219;-41
2022/09/30 07:55:54;;;;;;;24.13;15.10;;;8.10;99.90;;;;;;6246104;22;20585;-39
2022/09/30 07:58:20;;;;;;;25.93;13.27;;;8.30;99.90;;;;;;6246218;22;20194;-37
2022/09/30 08:00:49;;;;;;;19.73;13.03;;;8.30;99.90;;;;;;6246279;22;20171;-41
2022/09/30 08:03:14;;;;;;;19.20;12.37;;;8.50;99.90;;;;;;6246286;22;20585;-41
2022/09/30 08:05:44;;;;;;;24.80;14.63;;;8.60;99.90;;;;;;6246204;22;20185;-41
2022/09/30 08:08:12;;;;;;;25.67;15.47;;;8.70;99.90;;;;;;6244623;23;20342;-40
2022/09/30 08:10:37;;;;;;;24.47;15.40;;;8.80;99.90;;;;;;6246205;22;20635;-42
2022/09/30 08:13:03;;;;;;;28.40;16.10;;;9.00;99.90;;;;;;6246120;22;20150;-39
2022/09/30 08:15:28;;;;;;;27.40;17.73;;;9.10;99.90;;;;;;6246168;22;20157;-42
2022/09/30 08:17:54;;;;;;;25.20;17.30;;;9.20;99.90;;;;;;6246260;22;20491;-41
2022/09/30 08:20:19;;;;;;;28.53;17.43;;;9.30;99.90;;;;;;6246652;22;20241;-40
2022/09/30 08:22:45;;;;;;;26.47;17.10;;;9.40;99.90;;;;;;6244571;23;20216;-41
2022/09/30 08:25:11;;;;;;;34.90;17.83;;;9.60;99.90;;;;;;6246201;22;20156;-37
2022/09/30 08:27:37;;;;;;;25.60;16.67;;;9.70;99.90;;;;;;6246012;22;20246;-37
2022/09/30 08:30:04;;;;;;;25.87;17.17;;;9.80;99.90;;;;;;6245887;22;20173;-36
2022/09/30 08:32:30;;;;;;;25.20;16.77;;;9.90;99.90;;;;;;6246041;22;20173;-37
2022/09/30 08:34:56;;;;;;;25.17;16.57;;;10.00;99.90;;;;;;6245917;22;20157;-40
2022/09/30 08:37:22;;;;;;;27.10;18.13;;;10.20;99.90;;;;;;6245908;22;20178;-38
2022/09/30 08:39:48;;;;;;;29.23;17.40;;;10.20;99.90;;;;;;6246280;22;20160;-38
2022/09/30 08:42:38;;;;;;;28.30;16.83;;;10.40;99.90;;;;;;6245997;22;20213;-36
2022/09/30 08:45:13;;;;;;;27.03;17.77;;;10.40;99.90;;;;;;6245817;22;20607;-37
2022/09/30 08:47:50;;;;;;;35.10;20.87;;;10.60;99.90;;;;;;6246137;22;20254;-38
2022/09/30 08:50:32;;;;;;;28.27;20.40;;;10.80;99.90;;;;;;6246064;22;20171;-39
2022/09/30 08:53:09;;;;;;;30.13;20.87;;;10.90;99.90;;;;;;6245834;22;20601;-38
2022/09/30 08:55:43;;;;;;;27.00;18.60;;;11.10;99.90;;;;;;6245943;22;20139;-40
2022/09/30 08:58:39;;;;;;;28.27;19.37;;;11.20;99.90;;;;;;6245780;22;20293;-37
2022/09/30 09:01:25;;;;;;;31.37;20.13;;;11.40;99.90;;;;;;6244361;23;20648;-38
2022/09/30 09:03:51;;;;;;;28.93;19.97;;;11.50;99.90;;;;;;6248317;22;20167;-38
2022/09/30 09:06:26;;;;;;;33.07;23.47;;;11.60;99.90;;;;;;6248187;22;20176;-39
2022/09/30 09:09:03;;;;;;;30.67;22.10;;;11.80;99.90;;;;;;6248306;22;20605;-38
2022/09/30 09:12:04;;;;;;;31.00;17.97;;;11.90;99.90;;;;;;6248558;22;20148;-37
2022/09/30 09:14:36;;;;;;;23.07;16.93;;;12.00;99.90;;;;;;6248150;22;20179;-40
2022/09/30 09:17:13;;;;;;;29.07;18.50;;;12.20;99.90;;;;;;6248061;22;20181;-40
2022/09/30 09:19:58;;;;;;;25.43;17.67;;;12.30;99.90;;;;;;6247680;22;20154;-37
2022/09/30 09:22:26;;;;;;;22.03;15.27;;;12.50;99.90;;;;;;6248381;22;20148;-37
2022/09/30 09:24:54;;;;;;;24.83;15.43;;;12.60;99.90;;;;;;6247621;22;20164;-40
2022/09/30 09:27:34;;;;;;;16.43;13.53;;;12.70;99.90;;;;;;6247559;22;20497;-39
2022/09/30 09:30:19;;;;;;;19.30;14.27;;;12.80;99.90;;;;;;6248169;22;20198;-41
2022/09/30 09:32:54;;;;;;;18.53;13.63;;;13.00;99.90;;;;;;6245934;23;20178;-39
2022/09/30 09:35:52;;;;;;;20.50;13.33;;;13.10;99.90;;;;;;6247827;22;20131;-39
2022/09/30 09:38:34;;;;;;;19.47;12.90;;;13.30;99.90;;;;;;6248259;22;20233;-39
2022/09/30 09:41:14;;;;;;;15.37;11.77;;;13.40;99.90;;;;;;6247925;22;20144;-41
2022/09/30 09:43:59;;;;;;;13.43;10.67;;;13.50;99.90;;;;;;6247655;22;20155;-38
2022/09/30 09:46:43;;;;;;;11.80;10.37;;;13.60;99.90;;;;;;6247814;22;20247;-39
2022/09/30 09:49:22;;;;;;;15.10;10.73;;;13.80;99.90;;;;;;6247851;22;20143;-37
2022/09/30 09:52:20;;;;;;;14.00;10.77;;;13.90;99.90;;;;;;6248211;22;20154;-38
2022/09/30 09:54:51;;;;;;;16.83;9.93;;;14.00;99.90;;;;;;6247806;22;20139;-38
2022/09/30 09:57:23;;;;;;;14.73;9.50;;;14.10;99.90;;;;;;6247539;22;20176;-38
2022/09/30 10:03:04;;;;;;;11.90;7.57;;;14.20;99.90;;;;;;6247790;23;20201;-41
2022/09/30 10:05:38;;;;;;;8.03;6.90;;;14.30;99.90;;;;;;6247641;22;20193;-42
2022/09/30 10:08:18;;;;;;;11.37;7.97;;;14.40;99.90;;;;;;6247567;22;20175;-41
2022/09/30 10:10:50;;;;;;;10.03;8.43;;;14.50;99.90;;;;;;6247672;22;20501;-41
2022/09/30 10:13:21;;;;;;;10.93;9.10;;;14.60;99.90;;;;;;6247400;22;20152;-40
2022/09/30 10:15:49;;;;;;;8.40;7.50;;;14.70;99.90;;;;;;6247776;22;20172;-40
2022/09/30 10:18:34;;;;;;;8.27;7.13;;;14.80;99.90;;;;;;6247362;22;20701;-39
2022/09/30 10:21:19;;;;;;;9.20;7.20;;;14.80;99.90;;;;;;6247172;22;20642;-41
2022/09/30 10:23:45;;;;;;;7.10;6.40;;;14.90;99.90;;;;;;6245840;23;20235;-37
2022/09/30 10:26:13;;;;;;;10.67;5.90;;;15.00;99.90;;;;;;6247189;22;20575;-40
2022/09/30 10:28:45;;;;;;;7.33;5.23;;;15.10;99.90;;;;;;6247093;22;20159;-41
2022/09/30 10:31:16;;;;;;;11.07;7.83;;;15.20;99.90;;;;;;6247484;22;20274;-43
2022/09/30 10:34:09;;;;;;;7.90;6.03;;;15.40;99.90;;;;;;6247244;22;20669;-42
2022/09/30 10:36:38;;;;;;;7.33;4.50;;;15.50;99.90;;;;;;6249943;23;20505;-45
2022/09/30 10:39:15;;;;;;;5.20;4.43;;;15.60;99.90;;;;;;6251278;22;20155;-44
2022/09/30 10:41:41;;;;;;;5.03;4.20;;;15.70;99.90;;;;;;6252063;22;20499;-45
2022/09/30 10:44:14;;;;;;;5.63;4.40;;;15.90;99.90;;;;;;6252193;22;20251;-46
2022/09/30 10:46:43;;;;;;;8.83;3.30;;;16.00;99.90;;;;;;6251603;22;20238;-46
2022/09/30 10:49:31;;;;;;;5.73;4.23;;;16.00;99.90;;;;;;6251508;22;20156;-45
2022/09/30 10:51:58;;;;;;;6.57;5.87;;;16.10;99.90;;;;;;6250462;23;20616;-44
2022/09/30 10:54:38;;;;;;;5.40;4.90;;;16.30;99.90;;;;;;6250624;22;20648;-45
2022/09/30 10:57:04;;;;;;;4.63;3.73;;;16.40;99.90;;;;;;6248907;23;20499;-46
2022/09/30 10:59:38;;;;;;;3.77;3.30;;;16.50;99.90;;;;;;6250316;22;20212;-46
2022/09/30 11:02:19;;;;;;;5.30;4.80;;;16.70;99.90;;;;;;6249956;22;20147;-44
2022/09/30 11:05:01;;;;;;;7.60;5.90;;;16.80;99.90;;;;;;6249294;22;20534;-45
2022/09/30 11:07:37;;;;;;;7.73;6.27;;;16.90;99.90;;;;;;6248592;22;20578;-48
2022/09/30 11:10:43;;;;;;;6.10;5.50;;;17.00;99.90;;;;;;6248245;22;20190;-47
2022/09/30 11:13:24;;;;;;;7.37;5.80;;;17.00;99.90;;;;;;6156455;23;20473;-46
2022/09/30 11:16:00;;;;;;;7.63;5.53;;;17.00;99.90;;;;;;6233885;23;20160;-48
2022/09/30 11:18:47;;;;;;;8.17;5.63;;;17.10;99.90;;;;;;6247412;23;20582;-47
2022/09/30 11:21:27;;;;;;;7.20;5.27;;;17.10;99.90;;;;;;6249907;22;20688;-47
2022/09/30 11:24:02;;;;;;;5.33;4.83;;;17.30;99.90;;;;;;6249897;22;20151;-47
2022/09/30 11:26:52;;;;;;;7.03;4.83;;;17.40;99.90;;;;;;6249888;22;20175;-47
2022/09/30 11:29:41;;;;;;;5.90;5.30;;;17.50;99.90;;;;;;6249831;22;20182;-46
2022/09/30 11:32:21;;;;;;;7.37;5.80;;;17.50;99.90;;;;;;6249584;22;20488;-47
2022/09/30 11:34:47;;;;;;;6.70;6.00;;;17.60;99.90;;;;;;6248200;23;20147;-46
2022/09/30 11:37:19;;;;;;;7.07;5.10;;;17.70;99.90;;;;;;6251186;22;20246;-46
2022/09/30 11:40:15;;;;;;;5.23;4.53;;;17.80;99.90;;;;;;6251115;22;20225;-45
2022/09/30 11:42:53;;;;;;;7.73;4.60;;;17.90;99.90;;;;;;6249703;22;20205;-47
2022/09/30 11:45:39;;;;;;;5.97;5.13;;;17.90;99.90;;;;;;6250372;22;20151;-46
2022/09/30 11:48:10;;;;;;;5.47;4.97;;;18.00;99.90;;;;;;6250876;22;20254;-46
2022/09/30 11:51:00;;;;;;;5.27;4.60;;;18.10;99.90;;;;;;6250315;22;20175;-47
2022/09/30 11:53:41;;;;;;;5.63;4.73;;;18.10;99.90;;;;;;6250774;23;20543;-47
2022/09/30 11:56:39;;;;;;;7.60;4.73;;;18.20;99.90;;;;;;6251145;22;20605;-43
2022/09/30 11:59:16;;;;;;;5.03;4.53;;;18.20;99.90;;;;;;6251541;22;20147;-46
2022/09/30 12:01:48;;;;;;;5.63;4.87;;;18.30;99.90;;;;;;6252034;22;20218;-45
2022/09/30 12:04:37;;;;;;;5.20;4.70;;;18.30;99.90;;;;;;6251443;22;20156;-45
2022/09/30 12:07:13;;;;;;;4.87;4.27;;;18.40;99.90;;;;;;6251655;22;20521;-44
2022/09/30 12:10:00;;;;;;;5.20;4.33;;;18.40;99.90;;;;;;6250315;23;20682;-46
2022/09/30 12:12:25;;;;;;;5.47;4.87;;;18.40;99.90;;;;;;6252645;22;20144;-45
2022/09/30 12:14:59;;;;;;;6.57;5.00;;;18.30;99.90;;;;;;6253201;22;20183;-45
2022/09/30 12:17:45;;;;;;;5.60;4.97;;;18.30;99.90;;;;;;6253083;22;20171;-45
2022/09/30 12:20:25;;;;;;;5.50;4.57;;;18.40;99.90;;;;;;6251707;22;20139;-47
2022/09/30 12:23:18;;;;;;;5.57;4.80;;;18.50;99.90;;;;;;6250754;23;20493;-49
2022/09/30 12:26:00;;;;;;;5.30;4.80;;;18.60;99.90;;;;;;6250990;22;20226;-48
2022/09/30 12:32:10;;;;;;;6.27;4.60;;;18.70;99.90;;;;;;6246318;23;20201;-44
2022/09/30 12:35:09;;;;;;;7.17;4.47;;;18.80;99.90;;;;;;6246258;22;20156;-45
2022/09/30 12:37:40;;;;;;;5.33;4.37;;;18.70;99.90;;;;;;6245987;23;20172;-44
2022/09/30 12:40:38;;;;;;;5.60;4.40;;;18.70;99.90;;;;;;6246199;22;20155;-48
2022/09/30 12:43:29;;;;;;;4.40;3.93;;;18.80;99.90;;;;;;6246319;22;20155;-46
2022/09/30 12:46:19;;;;;;;4.47;3.70;;;18.90;99.90;;;;;;6246645;22;20281;-46
2022/09/30 12:48:52;;;;;;;5.97;3.67;;;18.80;99.90;;;;;;6246759;22;20151;-43
2022/09/30 12:51:31;;;;;;;3.87;3.30;;;18.80;99.90;;;;;;6246183;22;20250;-45
2022/09/30 12:54:11;;;;;;;8.10;3.70;;;18.70;99.90;;;;;;6246441;22;20144;-45
2022/09/30 12:56:42;;;;;;;4.10;3.70;;;18.70;99.90;;;;;;6246660;22;20229;-44
2022/09/30 12:59:08;;;;;;;8.60;4.90;;;18.60;99.90;;;;;;6246673;22;20147;-43
2022/09/30 13:01:40;;;;;;;5.40;4.90;;;18.60;99.90;;;;;;6246876;22;20190;-47
2022/09/30 13:04:07;;;;;;;5.63;4.37;;;18.50;99.90;;;;;;6246382;22;20160;-43
2022/09/30 13:06:45;;;;;;;8.33;4.33;;;18.50;99.90;;;;;;6244188;23;20615;-46
2022/09/30 13:09:10;;;;;;;5.93;4.20;;;18.50;99.90;;;;;;6246052;22;20147;-45
2022/09/30 13:11:39;;;;;;;4.97;4.47;;;18.50;99.90;;;;;;6246234;22;20158;-45
2022/09/30 13:14:31;;;;;;;3.83;3.53;;;18.60;99.90;;;;;;6245962;22;20155;-47
2022/09/30 13:17:22;;;;;;;4.87;4.37;;;18.70;99.90;;;;;;6246338;22;20512;-45
2022/09/30 13:19:50;;;;;;;4.20;3.80;;;18.60;99.90;;;;;;6235160;22;20159;-44
2022/09/30 13:22:19;;;;;;;4.93;3.73;;;18.60;99.90;;;;;;6246146;22;20233;-44
2022/09/30 13:24:57;;;;;;;4.00;3.70;;;18.70;99.90;;;;;;6245901;22;20163;-43
2022/09/30 13:27:38;;;;;;;10.20;3.93;;;18.80;99.90;;;;;;6245964;22;20181;-47
2022/09/30 13:30:13;;;;;;;4.10;3.70;;;18.90;99.90;;;;;;6246559;22;20207;-44